sensor_id;sensor_type;location;lat;lon;timestamp;P1;durP1;ratioP1;P2;durP2;ratioP2
13611;SDS011;6877;51.436;6.774;2022-12-29T00:01:23;2.15;;;1.95;;
13611;SDS011;6877;51.436;6.774;2022-12-29T00:03:49;1.13;;;1.13;;
13611;SDS011;6877;51.436;6.774;2022-12-29T00:06:21;1.25;;;1.20;;
13611;SDS011;6877;51.436;6.774;2022-12-29T00:08:52;1.48;;;1.33;;
13611;SDS011;6877;51.436;6.774;2022-12-29T00:11:24;2.10;;;1.90;;
13611;SDS011;6877;51.436;6.774;2022-12-29T00:13:57;2.55;;;1.40;;
13611;SDS011;6877;51.436;6.774;2022-12-29T00:16:47;1.15;;;1.13;;
13611;SDS011;6877;51.436;6.774;2022-12-29T00:19:19;1.58;;;1.48;;
13611;SDS011;6877;51.436;6.774;2022-12-29T00:22:09;2.17;;;1.67;;
13611;SDS011;6877;51.436;6.774;2022-12-29T00:25:01;1.92;;;1.27;;
13611;SDS011;6877;51.436;6.774;2022-12-29T00:27:32;1.90;;;1.55;;
13611;SDS011;6877;51.436;6.774;2022-12-29T00:30:23;1.20;;;1.10;;
13611;SDS011;6877;51.436;6.774;2022-12-29T00:33:18;1.85;;;1.55;;
13611;SDS011;6877;51.436;6.774;2022-12-29T00:36:16;1.35;;;1.25;;
13611;SDS011;6877;51.436;6.774;2022-12-29T00:39:07;1.23;;;1.20;;
13611;SDS011;6877;51.436;6.774;2022-12-29T00:42:08;1.40;;;1.30;;
13611;SDS011;6877;51.436;6.774;2022-12-29T00:44:53;1.40;;;1.30;;
13611;SDS011;6877;51.436;6.774;2022-12-29T00:47:24;1.50;;;1.38;;
13611;SDS011;6877;51.436;6.774;2022-12-29T00:49:58;1.10;;;1.10;;
13611;SDS011;6877;51.436;6.774;2022-12-29T00:52:30;1.10;;;1.10;;
13611;SDS011;6877;51.436;6.774;2022-12-29T00:55:01;4.93;;;1.35;;
13611;SDS011;6877;51.436;6.774;2022-12-29T00:57:33;1.58;;;1.48;;
13611;SDS011;6877;51.436;6.774;2022-12-29T01:00:04;2.55;;;1.35;;
13611;SDS011;6877;51.436;6.774;2022-12-29T01:02:36;1.27;;;1.17;;
13611;SDS011;6877;51.436;6.774;2022-12-29T01:05:07;1.45;;;1.30;;
13611;SDS011;6877;51.436;6.774;2022-12-29T01:07:39;1.52;;;1.05;;
13611;SDS011;6877;51.436;6.774;2022-12-29T01:10:10;1.20;;;1.10;;
13611;SDS011;6877;51.436;6.774;2022-12-29T01:12:42;1.08;;;1.00;;
13611;SDS011;6877;51.436;6.774;2022-12-29T01:15:14;1.00;;;1.00;;
13611;SDS011;6877;51.436;6.774;2022-12-29T01:17:46;2.00;;;1.40;;
13611;SDS011;6877;51.436;6.774;2022-12-29T01:20:17;2.83;;;2.05;;
13611;SDS011;6877;51.436;6.774;2022-12-29T01:22:49;4.07;;;1.70;;
13611;SDS011;6877;51.436;6.774;2022-12-29T01:25:20;1.88;;;1.70;;
13611;SDS011;6877;51.436;6.774;2022-12-29T01:27:51;3.22;;;2.10;;
13611;SDS011;6877;51.436;6.774;2022-12-29T01:30:23;1.65;;;1.55;;
13611;SDS011;6877;51.436;6.774;2022-12-29T01:32:49;1.77;;;1.50;;
13611;SDS011;6877;51.436;6.774;2022-12-29T01:35:16;1.20;;;1.20;;
13611;SDS011;6877;51.436;6.774;2022-12-29T01:37:47;1.35;;;1.25;;
13611;SDS011;6877;51.436;6.774;2022-12-29T01:40:18;1.25;;;1.15;;
13611;SDS011;6877;51.436;6.774;2022-12-29T01:42:50;1.42;;;1.33;;
13611;SDS011;6877;51.436;6.774;2022-12-29T01:45:17;1.50;;;1.02;;
13611;SDS011;6877;51.436;6.774;2022-12-29T01:47:53;1.15;;;1.10;;
13611;SDS011;6877;51.436;6.774;2022-12-29T01:50:33;3.13;;;1.10;;
13611;SDS011;6877;51.436;6.774;2022-12-29T01:53:06;1.20;;;1.10;;
13611;SDS011;6877;51.436;6.774;2022-12-29T01:55:40;1.05;;;1.02;;
13611;SDS011;6877;51.436;6.774;2022-12-29T01:58:12;1.50;;;1.30;;
13611;SDS011;6877;51.436;6.774;2022-12-29T02:00:47;1.10;;;1.10;;
13611;SDS011;6877;51.436;6.774;2022-12-29T02:03:19;3.00;;;1.20;;
13611;SDS011;6877;51.436;6.774;2022-12-29T02:08:29;2.25;;;1.35;;
13611;SDS011;6877;51.436;6.774;2022-12-29T02:10:56;1.90;;;1.67;;
13611;SDS011;6877;51.436;6.774;2022-12-29T02:13:29;1.20;;;1.20;;
13611;SDS011;6877;51.436;6.774;2022-12-29T02:21:35;1.90;;;1.60;;
13611;SDS011;6877;51.436;6.774;2022-12-29T02:39:25;4.25;;;1.92;;
13611;SDS011;6877;51.436;6.774;2022-12-29T02:42:03;2.28;;;1.80;;
13611;SDS011;6877;51.436;6.774;2022-12-29T02:50:31;3.28;;;2.00;;
13611;SDS011;6877;51.436;6.774;2022-12-29T02:53:07;4.65;;;2.40;;
13611;SDS011;6877;51.436;6.774;2022-12-29T02:55:49;7.25;;;2.13;;
13611;SDS011;6877;51.436;6.774;2022-12-29T02:58:22;6.45;;;2.88;;
13611;SDS011;6877;51.436;6.774;2022-12-29T03:09:16;6.10;;;2.67;;
13611;SDS011;6877;51.436;6.774;2022-12-29T03:14:42;5.78;;;2.72;;
13611;SDS011;6877;51.436;6.774;2022-12-29T03:17:32;8.35;;;2.83;;
13611;SDS011;6877;51.436;6.774;2022-12-29T03:20:07;8.77;;;3.63;;
13611;SDS011;6877;51.436;6.774;2022-12-29T03:22:41;6.18;;;3.33;;
13611;SDS011;6877;51.436;6.774;2022-12-29T03:25:20;6.32;;;3.22;;
13611;SDS011;6877;51.436;6.774;2022-12-29T03:27:53;4.18;;;2.50;;
13611;SDS011;6877;51.436;6.774;2022-12-29T03:30:28;12.25;;;2.90;;
13611;SDS011;6877;51.436;6.774;2022-12-29T03:33:02;4.75;;;2.85;;
13611;SDS011;6877;51.436;6.774;2022-12-29T03:35:37;5.97;;;3.08;;
13611;SDS011;6877;51.436;6.774;2022-12-29T03:38:19;3.83;;;2.65;;
13611;SDS011;6877;51.436;6.774;2022-12-29T03:40:59;7.97;;;3.20;;
13611;SDS011;6877;51.436;6.774;2022-12-29T03:43:34;6.38;;;2.45;;
13611;SDS011;6877;51.436;6.774;2022-12-29T03:46:06;2.85;;;1.80;;
13611;SDS011;6877;51.436;6.774;2022-12-29T03:48:37;3.90;;;1.83;;
13611;SDS011;6877;51.436;6.774;2022-12-29T03:51:08;5.68;;;2.17;;
13611;SDS011;6877;51.436;6.774;2022-12-29T03:53:40;7.18;;;3.22;;
13611;SDS011;6877;51.436;6.774;2022-12-29T03:56:11;5.05;;;3.13;;
13611;SDS011;6877;51.436;6.774;2022-12-29T03:58:42;2.33;;;1.60;;
13611;SDS011;6877;51.436;6.774;2022-12-29T04:01:14;2.63;;;1.50;;
13611;SDS011;6877;51.436;6.774;2022-12-29T04:03:45;4.30;;;1.30;;
13611;SDS011;6877;51.436;6.774;2022-12-29T04:06:17;1.65;;;1.30;;
13611;SDS011;6877;51.436;6.774;2022-12-29T04:08:48;1.35;;;1.10;;
13611;SDS011;6877;51.436;6.774;2022-12-29T04:11:20;2.60;;;1.35;;
13611;SDS011;6877;51.436;6.774;2022-12-29T04:13:52;2.42;;;1.40;;
13611;SDS011;6877;51.436;6.774;2022-12-29T04:16:23;3.42;;;1.48;;
13611;SDS011;6877;51.436;6.774;2022-12-29T04:18:55;1.30;;;1.17;;
13611;SDS011;6877;51.436;6.774;2022-12-29T04:21:28;3.50;;;1.42;;
13611;SDS011;6877;51.436;6.774;2022-12-29T04:24:00;1.77;;;1.30;;
13611;SDS011;6877;51.436;6.774;2022-12-29T04:26:31;3.30;;;1.30;;
13611;SDS011;6877;51.436;6.774;2022-12-29T04:29:03;1.23;;;1.15;;
13611;SDS011;6877;51.436;6.774;2022-12-29T04:31:34;3.75;;;2.13;;
13611;SDS011;6877;51.436;6.774;2022-12-29T04:34:06;1.52;;;1.20;;
13611;SDS011;6877;51.436;6.774;2022-12-29T04:36:37;3.80;;;2.45;;
13611;SDS011;6877;51.436;6.774;2022-12-29T04:39:10;4.85;;;1.90;;
13611;SDS011;6877;51.436;6.774;2022-12-29T04:41:36;4.88;;;2.22;;
13611;SDS011;6877;51.436;6.774;2022-12-29T04:44:08;4.53;;;2.40;;
13611;SDS011;6877;51.436;6.774;2022-12-29T04:46:39;5.18;;;2.72;;
13611;SDS011;6877;51.436;6.774;2022-12-29T04:49:10;7.30;;;2.90;;
13611;SDS011;6877;51.436;6.774;2022-12-29T04:51:42;5.68;;;2.70;;
13611;SDS011;6877;51.436;6.774;2022-12-29T04:54:13;3.63;;;1.92;;
13611;SDS011;6877;51.436;6.774;2022-12-29T04:56:45;2.33;;;1.90;;
13611;SDS011;6877;51.436;6.774;2022-12-29T04:59:11;1.45;;;1.15;;
13611;SDS011;6877;51.436;6.774;2022-12-29T05:01:43;3.20;;;1.77;;
13611;SDS011;6877;51.436;6.774;2022-12-29T05:04:14;2.38;;;1.30;;
13611;SDS011;6877;51.436;6.774;2022-12-29T05:06:45;1.52;;;1.42;;
13611;SDS011;6877;51.436;6.774;2022-12-29T05:09:17;1.38;;;1.27;;
13611;SDS011;6877;51.436;6.774;2022-12-29T05:11:48;4.63;;;1.20;;
13611;SDS011;6877;51.436;6.774;2022-12-29T05:14:20;5.97;;;1.13;;
13611;SDS011;6877;51.436;6.774;2022-12-29T05:16:51;1.77;;;1.20;;
13611;SDS011;6877;51.436;6.774;2022-12-29T05:19:22;3.85;;;1.20;;
13611;SDS011;6877;51.436;6.774;2022-12-29T05:21:54;1.10;;;1.10;;
13611;SDS011;6877;51.436;6.774;2022-12-29T05:24:22;2.97;;;1.33;;
13611;SDS011;6877;51.436;6.774;2022-12-29T05:26:54;1.55;;;1.10;;
13611;SDS011;6877;51.436;6.774;2022-12-29T05:29:20;1.20;;;1.10;;
13611;SDS011;6877;51.436;6.774;2022-12-29T05:31:53;1.45;;;1.10;;
13611;SDS011;6877;51.436;6.774;2022-12-29T05:34:24;1.50;;;1.20;;
13611;SDS011;6877;51.436;6.774;2022-12-29T05:36:56;6.13;;;1.45;;
13611;SDS011;6877;51.436;6.774;2022-12-29T05:39:27;3.88;;;1.30;;
13611;SDS011;6877;51.436;6.774;2022-12-29T05:41:59;4.68;;;1.10;;
13611;SDS011;6877;51.436;6.774;2022-12-29T05:44:30;1.83;;;1.25;;
13611;SDS011;6877;51.436;6.774;2022-12-29T05:47:02;2.17;;;0.93;;
13611;SDS011;6877;51.436;6.774;2022-12-29T05:49:33;1.05;;;1.00;;
13611;SDS011;6877;51.436;6.774;2022-12-29T05:52:05;1.63;;;1.25;;
13611;SDS011;6877;51.436;6.774;2022-12-29T05:54:36;2.38;;;1.05;;
13611;SDS011;6877;51.436;6.774;2022-12-29T05:57:07;3.63;;;1.20;;
13611;SDS011;6877;51.436;6.774;2022-12-29T05:59:39;4.50;;;1.15;;
13611;SDS011;6877;51.436;6.774;2022-12-29T06:02:06;3.00;;;1.27;;
13611;SDS011;6877;51.436;6.774;2022-12-29T06:04:37;1.30;;;1.20;;
13611;SDS011;6877;51.436;6.774;2022-12-29T06:07:08;2.05;;;1.25;;
13611;SDS011;6877;51.436;6.774;2022-12-29T06:09:35;4.13;;;1.42;;
13611;SDS011;6877;51.436;6.774;2022-12-29T06:12:06;2.05;;;1.23;;
13611;SDS011;6877;51.436;6.774;2022-12-29T06:14:37;1.38;;;1.27;;
13611;SDS011;6877;51.436;6.774;2022-12-29T06:17:09;4.00;;;1.60;;
13611;SDS011;6877;51.436;6.774;2022-12-29T06:19:40;4.28;;;1.38;;
13611;SDS011;6877;51.436;6.774;2022-12-29T06:22:12;2.55;;;1.45;;
13611;SDS011;6877;51.436;6.774;2022-12-29T06:24:43;2.00;;;1.40;;
13611;SDS011;6877;51.436;6.774;2022-12-29T06:27:15;6.70;;;1.20;;
13611;SDS011;6877;51.436;6.774;2022-12-29T06:29:46;2.40;;;2.30;;
13611;SDS011;6877;51.436;6.774;2022-12-29T06:32:18;2.50;;;1.27;;
13611;SDS011;6877;51.436;6.774;2022-12-29T06:34:49;2.33;;;1.60;;
13611;SDS011;6877;51.436;6.774;2022-12-29T06:37:16;2.78;;;1.63;;
13611;SDS011;6877;51.436;6.774;2022-12-29T06:39:47;3.88;;;2.08;;
13611;SDS011;6877;51.436;6.774;2022-12-29T06:42:13;3.20;;;2.05;;
13611;SDS011;6877;51.436;6.774;2022-12-29T06:44:45;3.50;;;1.70;;
13611;SDS011;6877;51.436;6.774;2022-12-29T06:47:16;1.70;;;1.40;;
13611;SDS011;6877;51.436;6.774;2022-12-29T06:49:48;2.78;;;1.63;;
13611;SDS011;6877;51.436;6.774;2022-12-29T06:52:19;1.75;;;1.40;;
13611;SDS011;6877;51.436;6.774;2022-12-29T06:54:51;6.13;;;1.80;;
13611;SDS011;6877;51.436;6.774;2022-12-29T06:57:22;6.45;;;2.75;;
13611;SDS011;6877;51.436;6.774;2022-12-29T06:59:49;5.95;;;1.58;;
13611;SDS011;6877;51.436;6.774;2022-12-29T07:02:20;1.95;;;1.40;;
13611;SDS011;6877;51.436;6.774;2022-12-29T07:04:52;1.83;;;1.23;;
13611;SDS011;6877;51.436;6.774;2022-12-29T07:07:24;6.65;;;1.67;;
13611;SDS011;6877;51.436;6.774;2022-12-29T07:09:51;3.50;;;1.67;;
13611;SDS011;6877;51.436;6.774;2022-12-29T07:12:23;3.05;;;1.52;;
13611;SDS011;6877;51.436;6.774;2022-12-29T07:14:49;8.57;;;1.67;;
13611;SDS011;6877;51.436;6.774;2022-12-29T07:17:21;1.73;;;1.58;;
13611;SDS011;6877;51.436;6.774;2022-12-29T07:19:52;6.63;;;1.35;;
13611;SDS011;6877;51.436;6.774;2022-12-29T07:22:24;3.97;;;1.90;;
13611;SDS011;6877;51.436;6.774;2022-12-29T07:24:50;6.82;;;1.90;;
13611;SDS011;6877;51.436;6.774;2022-12-29T07:27:30;4.22;;;1.38;;
13611;SDS011;6877;51.436;6.774;2022-12-29T07:30:02;3.00;;;1.65;;
13611;SDS011;6877;51.436;6.774;2022-12-29T07:32:31;2.05;;;1.25;;
13611;SDS011;6877;51.436;6.774;2022-12-29T07:34:58;2.63;;;1.67;;
13611;SDS011;6877;51.436;6.774;2022-12-29T07:37:30;4.70;;;2.17;;
13611;SDS011;6877;51.436;6.774;2022-12-29T07:40:02;5.82;;;2.22;;
13611;SDS011;6877;51.436;6.774;2022-12-29T07:42:34;1.40;;;1.30;;
13611;SDS011;6877;51.436;6.774;2022-12-29T07:45:06;2.40;;;1.50;;
13611;SDS011;6877;51.436;6.774;2022-12-29T07:47:37;6.38;;;2.25;;
13611;SDS011;6877;51.436;6.774;2022-12-29T07:50:09;4.72;;;1.63;;
13611;SDS011;6877;51.436;6.774;2022-12-29T07:52:40;3.55;;;2.13;;
13611;SDS011;6877;51.436;6.774;2022-12-29T07:55:12;4.75;;;1.83;;
13611;SDS011;6877;51.436;6.774;2022-12-29T07:57:43;3.28;;;1.85;;
13611;SDS011;6877;51.436;6.774;2022-12-29T08:00:15;2.83;;;1.30;;
13611;SDS011;6877;51.436;6.774;2022-12-29T08:02:46;3.72;;;1.70;;
13611;SDS011;6877;51.436;6.774;2022-12-29T08:05:18;5.47;;;1.50;;
13611;SDS011;6877;51.436;6.774;2022-12-29T08:07:49;5.28;;;1.38;;
13611;SDS011;6877;51.436;6.774;2022-12-29T08:10:21;2.38;;;1.40;;
13611;SDS011;6877;51.436;6.774;2022-12-29T08:12:52;3.20;;;2.03;;
13611;SDS011;6877;51.436;6.774;2022-12-29T08:15:19;2.63;;;1.70;;
13611;SDS011;6877;51.436;6.774;2022-12-29T08:17:50;4.78;;;1.88;;
13611;SDS011;6877;51.436;6.774;2022-12-29T08:20:21;8.70;;;2.10;;
13611;SDS011;6877;51.436;6.774;2022-12-29T08:22:53;10.98;;;2.70;;
13611;SDS011;6877;51.436;6.774;2022-12-29T08:25:24;5.75;;;2.72;;
13611;SDS011;6877;51.436;6.774;2022-12-29T08:27:56;5.15;;;2.85;;
13611;SDS011;6877;51.436;6.774;2022-12-29T08:30:27;4.18;;;1.88;;
13611;SDS011;6877;51.436;6.774;2022-12-29T08:32:59;4.55;;;2.25;;
13611;SDS011;6877;51.436;6.774;2022-12-29T08:35:30;5.82;;;2.90;;
13611;SDS011;6877;51.436;6.774;2022-12-29T08:38:02;7.57;;;2.35;;
13611;SDS011;6877;51.436;6.774;2022-12-29T08:40:33;2.10;;;1.63;;
13611;SDS011;6877;51.436;6.774;2022-12-29T08:43:05;6.72;;;1.67;;
13611;SDS011;6877;51.436;6.774;2022-12-29T08:45:32;8.48;;;2.28;;
13611;SDS011;6877;51.436;6.774;2022-12-29T08:48:04;4.57;;;2.00;;
13611;SDS011;6877;51.436;6.774;2022-12-29T08:50:30;8.50;;;3.17;;
13611;SDS011;6877;51.436;6.774;2022-12-29T08:52:57;5.60;;;2.00;;
13611;SDS011;6877;51.436;6.774;2022-12-29T08:55:29;7.95;;;2.13;;
13611;SDS011;6877;51.436;6.774;2022-12-29T08:58:00;6.85;;;2.42;;
13611;SDS011;6877;51.436;6.774;2022-12-29T09:00:32;4.60;;;2.30;;
13611;SDS011;6877;51.436;6.774;2022-12-29T09:03:03;2.88;;;1.58;;
13611;SDS011;6877;51.436;6.774;2022-12-29T09:05:35;8.10;;;2.40;;
13611;SDS011;6877;51.436;6.774;2022-12-29T09:08:06;6.38;;;2.20;;
13611;SDS011;6877;51.436;6.774;2022-12-29T09:10:33;7.60;;;2.00;;
13611;SDS011;6877;51.436;6.774;2022-12-29T09:13:00;3.80;;;2.17;;
13611;SDS011;6877;51.436;6.774;2022-12-29T09:15:31;5.97;;;1.73;;
13611;SDS011;6877;51.436;6.774;2022-12-29T09:17:58;3.80;;;1.95;;
13611;SDS011;6877;51.436;6.774;2022-12-29T09:20:29;1.77;;;1.40;;
13611;SDS011;6877;51.436;6.774;2022-12-29T09:22:56;8.35;;;2.15;;
13611;SDS011;6877;51.436;6.774;2022-12-29T09:25:22;6.50;;;1.50;;
13611;SDS011;6877;51.436;6.774;2022-12-29T09:27:50;14.18;;;2.60;;
13611;SDS011;6877;51.436;6.774;2022-12-29T09:30:19;11.48;;;2.35;;
13611;SDS011;6877;51.436;6.774;2022-12-29T09:32:53;3.83;;;1.65;;
13611;SDS011;6877;51.436;6.774;2022-12-29T09:35:24;10.10;;;2.20;;
13611;SDS011;6877;51.436;6.774;2022-12-29T09:37:56;9.85;;;1.75;;
13611;SDS011;6877;51.436;6.774;2022-12-29T09:40:29;5.28;;;1.92;;
13611;SDS011;6877;51.436;6.774;2022-12-29T09:46:27;7.13;;;2.20;;
13611;SDS011;6877;51.436;6.774;2022-12-29T09:49:06;4.78;;;1.60;;
13611;SDS011;6877;51.436;6.774;2022-12-29T09:51:34;10.13;;;2.28;;
13611;SDS011;6877;51.436;6.774;2022-12-29T09:54:21;13.40;;;2.92;;
13611;SDS011;6877;51.436;6.774;2022-12-29T09:56:58;9.85;;;2.90;;
13611;SDS011;6877;51.436;6.774;2022-12-29T09:59:39;14.73;;;3.35;;
13611;SDS011;6877;51.436;6.774;2022-12-29T10:04:44;3.33;;;1.52;;
13611;SDS011;6877;51.436;6.774;2022-12-29T10:09:55;10.00;;;2.42;;
13611;SDS011;6877;51.436;6.774;2022-12-29T10:15:51;6.85;;;1.92;;
13611;SDS011;6877;51.436;6.774;2022-12-29T10:21:25;5.28;;;2.53;;
13611;SDS011;6877;51.436;6.774;2022-12-29T10:24:09;4.90;;;2.05;;
13611;SDS011;6877;51.436;6.774;2022-12-29T10:26:43;9.30;;;2.38;;
13611;SDS011;6877;51.436;6.774;2022-12-29T10:29:19;9.65;;;2.78;;
13611;SDS011;6877;51.436;6.774;2022-12-29T10:31:58;6.07;;;2.72;;
13611;SDS011;6877;51.436;6.774;2022-12-29T10:34:36;13.57;;;2.75;;
13611;SDS011;6877;51.436;6.774;2022-12-29T10:39:52;9.15;;;2.17;;
13611;SDS011;6877;51.436;6.774;2022-12-29T10:45:21;5.78;;;2.15;;
13611;SDS011;6877;51.436;6.774;2022-12-29T10:48:01;5.82;;;1.67;;
13611;SDS011;6877;51.436;6.774;2022-12-29T10:50:39;6.82;;;2.53;;
13611;SDS011;6877;51.436;6.774;2022-12-29T10:53:21;9.20;;;2.45;;
13611;SDS011;6877;51.436;6.774;2022-12-29T10:55:58;9.50;;;2.22;;
13611;SDS011;6877;51.436;6.774;2022-12-29T10:58:32;5.95;;;2.08;;
13611;SDS011;6877;51.436;6.774;2022-12-29T11:01:01;9.98;;;2.60;;
13611;SDS011;6877;51.436;6.774;2022-12-29T11:03:41;3.95;;;1.80;;
13611;SDS011;6877;51.436;6.774;2022-12-29T11:06:25;9.63;;;2.20;;
13611;SDS011;6877;51.436;6.774;2022-12-29T11:09:16;8.35;;;2.08;;
13611;SDS011;6877;51.436;6.774;2022-12-29T11:12:17;9.70;;;2.60;;
13611;SDS011;6877;51.436;6.774;2022-12-29T11:17:53;10.85;;;2.65;;
13611;SDS011;6877;51.436;6.774;2022-12-29T11:23:23;6.18;;;2.30;;
13611;SDS011;6877;51.436;6.774;2022-12-29T11:26:17;6.18;;;1.95;;
13611;SDS011;6877;51.436;6.774;2022-12-29T11:29:08;5.18;;;2.28;;
13611;SDS011;6877;51.436;6.774;2022-12-29T11:32:00;3.08;;;1.85;;
13611;SDS011;6877;51.436;6.774;2022-12-29T11:34:53;7.35;;;2.20;;
13611;SDS011;6877;51.436;6.774;2022-12-29T11:37:29;5.70;;;2.05;;
13611;SDS011;6877;51.436;6.774;2022-12-29T11:40:16;7.50;;;2.13;;
13611;SDS011;6877;51.436;6.774;2022-12-29T11:42:51;9.05;;;2.00;;
13611;SDS011;6877;51.436;6.774;2022-12-29T11:45:34;5.55;;;1.77;;
13611;SDS011;6877;51.436;6.774;2022-12-29T11:48:21;4.72;;;2.22;;
13611;SDS011;6877;51.436;6.774;2022-12-29T11:50:53;5.43;;;2.45;;
13611;SDS011;6877;51.436;6.774;2022-12-29T11:53:28;12.85;;;2.75;;
13611;SDS011;6877;51.436;6.774;2022-12-29T11:56:12;7.22;;;2.35;;
13611;SDS011;6877;51.436;6.774;2022-12-29T11:58:46;7.65;;;2.20;;
13611;SDS011;6877;51.436;6.774;2022-12-29T12:01:27;8.55;;;2.70;;
13611;SDS011;6877;51.436;6.774;2022-12-29T12:04:14;4.93;;;2.15;;
13611;SDS011;6877;51.436;6.774;2022-12-29T12:06:49;5.07;;;1.80;;
13611;SDS011;6877;51.436;6.774;2022-12-29T12:09:29;7.63;;;1.83;;
13611;SDS011;6877;51.436;6.774;2022-12-29T12:12:04;4.63;;;2.40;;
13611;SDS011;6877;51.436;6.774;2022-12-29T12:14:51;12.98;;;3.90;;
13611;SDS011;6877;51.436;6.774;2022-12-29T12:17:35;6.05;;;2.25;;
13611;SDS011;6877;51.436;6.774;2022-12-29T12:25:55;4.07;;;1.77;;
13611;SDS011;6877;51.436;6.774;2022-12-29T12:28:52;7.28;;;2.28;;
13611;SDS011;6877;51.436;6.774;2022-12-29T12:33:59;4.93;;;1.90;;
13611;SDS011;6877;51.436;6.774;2022-12-29T12:43:06;11.70;;;2.83;;
13611;SDS011;6877;51.436;6.774;2022-12-29T13:00:07;10.07;;;3.65;;
13611;SDS011;6877;51.436;6.774;2022-12-29T13:23:14;8.63;;;2.22;;
13611;SDS011;6877;51.436;6.774;2022-12-29T13:26:11;3.28;;;2.25;;
13611;SDS011;6877;51.436;6.774;2022-12-29T13:37:34;9.77;;;2.60;;
13611;SDS011;6877;51.436;6.774;2022-12-29T13:40:17;13.80;;;2.72;;
13611;SDS011;6877;51.436;6.774;2022-12-29T13:42:52;12.88;;;2.80;;
13611;SDS011;6877;51.436;6.774;2022-12-29T13:45:28;7.38;;;3.60;;
13611;SDS011;6877;51.436;6.774;2022-12-29T13:48:08;9.50;;;2.22;;
13611;SDS011;6877;51.436;6.774;2022-12-29T13:50:57;2.72;;;1.90;;
13611;SDS011;6877;51.436;6.774;2022-12-29T13:53:40;3.78;;;2.47;;
13611;SDS011;6877;51.436;6.774;2022-12-29T13:56:35;6.00;;;2.45;;
13611;SDS011;6877;51.436;6.774;2022-12-29T14:02:19;7.53;;;2.20;;
13611;SDS011;6877;51.436;6.774;2022-12-29T14:04:58;8.25;;;2.80;;
13611;SDS011;6877;51.436;6.774;2022-12-29T14:07:36;10.50;;;2.50;;
13611;SDS011;6877;51.436;6.774;2022-12-29T14:10:27;11.68;;;3.70;;
13611;SDS011;6877;51.436;6.774;2022-12-29T14:15:36;13.75;;;2.63;;
13611;SDS011;6877;51.436;6.774;2022-12-29T14:18:22;5.95;;;2.75;;
13611;SDS011;6877;51.436;6.774;2022-12-29T14:20:59;8.25;;;2.33;;
13611;SDS011;6877;51.436;6.774;2022-12-29T14:23:42;5.47;;;3.15;;
13611;SDS011;6877;51.436;6.774;2022-12-29T14:28:48;15.60;;;3.35;;
13611;SDS011;6877;51.436;6.774;2022-12-29T14:36:59;7.45;;;2.58;;
13611;SDS011;6877;51.436;6.774;2022-12-29T14:39:59;6.63;;;2.53;;
13611;SDS011;6877;51.436;6.774;2022-12-29T14:42:48;10.52;;;4.10;;
13611;SDS011;6877;51.436;6.774;2022-12-29T14:47:51;8.30;;;2.42;;
13611;SDS011;6877;51.436;6.774;2022-12-29T14:50:25;13.00;;;3.85;;
13611;SDS011;6877;51.436;6.774;2022-12-29T14:53:40;14.20;;;3.95;;
13611;SDS011;6877;51.436;6.774;2022-12-29T14:56:15;14.38;;;4.25;;
13611;SDS011;6877;51.436;6.774;2022-12-29T15:01:42;33.55;;;5.95;;
13611;SDS011;6877;51.436;6.774;2022-12-29T15:04:20;8.45;;;2.90;;
13611;SDS011;6877;51.436;6.774;2022-12-29T15:06:51;8.35;;;3.22;;
13611;SDS011;6877;51.436;6.774;2022-12-29T15:09:31;14.60;;;4.13;;
13611;SDS011;6877;51.436;6.774;2022-12-29T15:12:30;8.63;;;3.08;;
13611;SDS011;6877;51.436;6.774;2022-12-29T15:14:57;11.55;;;3.70;;
13611;SDS011;6877;51.436;6.774;2022-12-29T15:17:31;16.85;;;4.32;;
13611;SDS011;6877;51.436;6.774;2022-12-29T15:25:34;9.73;;;3.35;;
13611;SDS011;6877;51.436;6.774;2022-12-29T15:28:07;6.50;;;3.03;;
13611;SDS011;6877;51.436;6.774;2022-12-29T15:34:19;9.82;;;3.25;;
13611;SDS011;6877;51.436;6.774;2022-12-29T15:36:52;5.18;;;2.90;;
13611;SDS011;6877;51.436;6.774;2022-12-29T15:39:27;9.18;;;2.90;;
13611;SDS011;6877;51.436;6.774;2022-12-29T15:42:16;12.45;;;2.92;;
13611;SDS011;6877;51.436;6.774;2022-12-29T15:45:20;5.53;;;2.35;;
13611;SDS011;6877;51.436;6.774;2022-12-29T15:47:57;12.25;;;2.63;;
13611;SDS011;6877;51.436;6.774;2022-12-29T15:50:30;6.03;;;2.50;;
13611;SDS011;6877;51.436;6.774;2022-12-29T15:53:04;10.00;;;2.50;;
13611;SDS011;6877;51.436;6.774;2022-12-29T15:55:42;7.82;;;3.05;;
13611;SDS011;6877;51.436;6.774;2022-12-29T15:58:19;5.80;;;3.20;;
13611;SDS011;6877;51.436;6.774;2022-12-29T16:00:59;3.63;;;1.95;;
13611;SDS011;6877;51.436;6.774;2022-12-29T16:03:32;4.25;;;2.50;;
13611;SDS011;6877;51.436;6.774;2022-12-29T16:06:08;5.28;;;2.17;;
13611;SDS011;6877;51.436;6.774;2022-12-29T16:08:36;6.07;;;2.42;;
13611;SDS011;6877;51.436;6.774;2022-12-29T16:11:21;7.60;;;3.38;;
13611;SDS011;6877;51.436;6.774;2022-12-29T16:13:57;4.20;;;1.92;;
13611;SDS011;6877;51.436;6.774;2022-12-29T16:16:31;11.43;;;3.03;;
13611;SDS011;6877;51.436;6.774;2022-12-29T16:19:14;11.00;;;2.70;;
13611;SDS011;6877;51.436;6.774;2022-12-29T16:21:52;5.00;;;2.40;;
13611;SDS011;6877;51.436;6.774;2022-12-29T16:24:25;11.73;;;2.90;;
13611;SDS011;6877;51.436;6.774;2022-12-29T16:27:15;7.32;;;2.78;;
13611;SDS011;6877;51.436;6.774;2022-12-29T16:29:53;8.68;;;2.78;;
13611;SDS011;6877;51.436;6.774;2022-12-29T16:32:29;12.35;;;3.25;;
13611;SDS011;6877;51.436;6.774;2022-12-29T16:37:43;10.82;;;3.47;;
13611;SDS011;6877;51.436;6.774;2022-12-29T16:42:59;13.80;;;3.05;;
13611;SDS011;6877;51.436;6.774;2022-12-29T16:48:20;5.70;;;2.78;;
13611;SDS011;6877;51.436;6.774;2022-12-29T16:50:52;9.98;;;3.15;;
13611;SDS011;6877;51.436;6.774;2022-12-29T16:53:37;10.45;;;4.93;;
13611;SDS011;6877;51.436;6.774;2022-12-29T16:56:15;14.13;;;3.00;;
13611;SDS011;6877;51.436;6.774;2022-12-29T17:01:34;3.13;;;1.50;;
13611;SDS011;6877;51.436;6.774;2022-12-29T17:04:08;3.95;;;1.58;;
13611;SDS011;6877;51.436;6.774;2022-12-29T17:06:42;3.55;;;1.30;;
13611;SDS011;6877;51.436;6.774;2022-12-29T17:09:17;4.15;;;1.58;;
13611;SDS011;6877;51.436;6.774;2022-12-29T17:11:57;1.45;;;1.35;;
13611;SDS011;6877;51.436;6.774;2022-12-29T17:17:46;3.28;;;1.50;;
13611;SDS011;6877;51.436;6.774;2022-12-29T17:22:52;6.80;;;1.92;;
13611;SDS011;6877;51.436;6.774;2022-12-29T17:25:21;8.15;;;1.75;;
13611;SDS011;6877;51.436;6.774;2022-12-29T17:27:53;4.30;;;3.17;;
13611;SDS011;6877;51.436;6.774;2022-12-29T17:30:29;2.28;;;1.92;;
13611;SDS011;6877;51.436;6.774;2022-12-29T17:35:32;2.72;;;2.05;;
13611;SDS011;6877;51.436;6.774;2022-12-29T17:40:50;4.63;;;2.55;;
13611;SDS011;6877;51.436;6.774;2022-12-29T17:43:22;2.42;;;1.55;;
13611;SDS011;6877;51.436;6.774;2022-12-29T17:45:56;6.63;;;2.30;;
13611;SDS011;6877;51.436;6.774;2022-12-29T17:48:29;7.15;;;2.10;;
13611;SDS011;6877;51.436;6.774;2022-12-29T17:51:00;2.42;;;2.00;;
13611;SDS011;6877;51.436;6.774;2022-12-29T17:53:32;4.63;;;2.53;;
13611;SDS011;6877;51.436;6.774;2022-12-29T17:56:03;7.30;;;3.65;;
13611;SDS011;6877;51.436;6.774;2022-12-29T17:58:35;6.10;;;2.60;;
13611;SDS011;6877;51.436;6.774;2022-12-29T18:01:06;7.43;;;2.38;;
13611;SDS011;6877;51.436;6.774;2022-12-29T18:03:40;9.02;;;3.60;;
13611;SDS011;6877;51.436;6.774;2022-12-29T18:06:11;5.05;;;2.65;;
13611;SDS011;6877;51.436;6.774;2022-12-29T18:08:43;10.90;;;2.58;;
13611;SDS011;6877;51.436;6.774;2022-12-29T18:11:24;5.82;;;3.00;;
13611;SDS011;6877;51.436;6.774;2022-12-29T18:13:57;4.05;;;2.60;;
13611;SDS011;6877;51.436;6.774;2022-12-29T18:16:28;6.80;;;2.75;;
13611;SDS011;6877;51.436;6.774;2022-12-29T18:18:59;14.23;;;3.03;;
13611;SDS011;6877;51.436;6.774;2022-12-29T18:21:31;9.27;;;4.30;;
13611;SDS011;6877;51.436;6.774;2022-12-29T18:24:02;11.73;;;3.30;;
13611;SDS011;6877;51.436;6.774;2022-12-29T18:26:34;7.00;;;3.90;;
13611;SDS011;6877;51.436;6.774;2022-12-29T18:29:07;11.23;;;3.53;;
13611;SDS011;6877;51.436;6.774;2022-12-29T18:31:39;5.47;;;2.78;;
13611;SDS011;6877;51.436;6.774;2022-12-29T18:34:12;9.60;;;3.97;;
13611;SDS011;6877;51.436;6.774;2022-12-29T18:36:45;10.80;;;4.55;;
13611;SDS011;6877;51.436;6.774;2022-12-29T18:39:16;8.00;;;3.22;;
13611;SDS011;6877;51.436;6.774;2022-12-29T18:41:48;6.60;;;4.10;;